Fulton, New York
Current Conditions -  °F | °C
As of 3:54 PM on Tuesday 25 Nov 2014 (Local Time) from KFZY Reporting Station
Scattered Clouds Scattered Clouds  
Wind Chill: 36°   Ceiling: Unl
Heat Index: 44°   Visibility: 10mi
Dew Point: 26°   Wind: 20mph
Humidity: 49%   Direction: 290°WNW
Pressure: 29.97"   Gusts: 25mph
Location:  43.32°N, 76.41°W
Report Text: KFZY 252054Z AUTO 29017G22KT 10SM SCT060 07/M03 A2997 RMK AO2 PK WND 30026/2032 SLP149 T00671033 53018
Loading
Personal Weather Stations






























Interactive Weather Map New forecast layout! Learn more

10-Day Weather Forecast

Advertisements
Track Severe Weather on mobile